Enter the Airport ICAO Code

Search by Airport or City

Current Weather

LEVC | Valencia Airport

Valencia, Valencian Community, Spain

Last Update 17 Minutes Ago

Sky with Few Clouds

Temperature of 09 ēC

Moderate Winds from West

Temperature

09 ēC

Dew Point Temperature

02 ēC

Relative Humidity

61.57 %

Wind Direction

West (250ē, Without Significant Variations)

Wind Velocity

20 km/h (11 kt)

Gusts

None

Visibility

Greater than 10 Kilometers

Sea Level Pressure

1005 hPa (Hectopascals)

Layers of Clouds

5% to 30% of Sky Covered from 1829 mts (6000 ft) Above Ground Level.

METAR LEVC 052130Z 25011KT 9999 FEW060 09/02 Q1005 NOSIG

Weather Forecast

LEVC | Valencia Airport

Valencia, Valencian Community, Spain

Forecast valid for the next 20 Hours

From now on it is expected:

Sky with Few Clouds

Light to Moderate Winds from West

Maximum Temperature

14 ēC in 15 Hours

Minimum Temperature

07 ēC in 8 Hours

TAF LEVC 051700Z 0518/0618 28008KT 9999 FEW030 TX14/0613Z TN07/0606Z